Data for 06/25/2007

Time Sea-Level Adjusted Pressure Absolute Pressure Temperature Relative Humidity Dew Point   
(mb) (inHg) (mb) (inHg) (C) (F) (%) (C) (F)
00:05 1014 29.94 843 24.89 15.8 60.4 54 6.6 43.9
00:10 1014 29.94 843 24.89 15.7 60.2 53 6.3 43.3
00:15 1014 29.94 843 24.89 15.6 60.1 52 5.9 42.7
00:20 1014 29.94 843 24.89 15.5 59.9 52 5.8 42.5
00:25 1014 29.94 843 24.89 15.5 59.9 51 5.5 41.9
00:30 1014 29.94 843 24.89 15.5 59.9 52 5.9 42.6
00:35 1014 29.94 843 24.89 15 59 54 5.8 42.5
00:40 1014 29.94 843 24.89 14.8 58.7 55 5.8 42.5
00:45 1014 29.94 843 24.89 14.6 58.3 55 5.8 42.4
00:50 1014 29.94 843 24.89 14.6 58.3 53 5.1 41.2
00:55 1014 29.94 843 24.89 14.8 58.6 53 5.3 41.6
01:00 1014 29.94 843 24.89 14.6 58.3 53 5.3 41.6
01:05 1014 29.94 843 24.89 14.4 58 52 4.8 40.6
01:10 1014 29.94 843 24.89 14.6 58.3 52 5.1 41.2
01:15 1014 29.94 843 24.89 14.3 57.8 53 4.9 40.8
01:20 1014 29.94 843 24.89 14.3 57.7 54 5 41.1
01:25 1014 29.94 843 24.89 14.5 58 53 5 40.9
01:30 1014 29.94 843 24.89 14.6 58.3 53 5.2 41.4
01:35 1014 29.94 843 24.89 14.2 57.5 55 5.4 41.8
01:40 1014 29.94 843 24.89 14 57.2 56 5.4 41.7
01:45 1014 29.94 843 24.89 14 57.1 55 5 41
01:50 1014 29.94 843 24.89 14.4 57.8 53 5 41.1
01:55 1014 29.94 843 24.89 14.5 58.1 53 5.2 41.4
02:00 1014 29.94 843 24.89 14.4 57.8 54 5.3 41.5
02:05 1014 29.94 843 24.89 14.3 57.8 55 5.4 41.7
02:10 1014 29.94 843 24.89 14.3 57.7 55 5.5 41.8
02:15 1014 29.94 843 24.89 14.2 57.5 55 5.4 41.7
02:20 1014 29.94 844 24.92 13.8 56.8 58 5.7 42.3
02:25 1014 29.94 843 24.89 13.4 56.2 59 5.6 42.1
02:30 1014 29.94 844 24.92 13.4 56.1 59 5.5 41.9
02:35 1014 29.94 844 24.92 13.5 56.3 59 5.7 42.3
02:40 1014 29.94 844 24.92 13.5 56.3 60 5.8 42.5
02:45 1014 29.94 844 24.92 13.3 55.9 61 6.1 42.9
02:50 1014 29.94 844 24.92 12.9 55.3 63 6.2 43.1
02:55 1014 29.94 844 24.92 12.6 54.7 65 6.3 43.3
03:00 1014 29.94 844 24.92 12.3 54.2 66 6.2 43.2
03:05 1014 29.94 844 24.92 12.5 54.4 66 6.4 43.5
03:10 1014 29.94 844 24.92 12.7 54.8 66 6.7 44
03:15 1014 29.94 844 24.92 12.8 55.1 67 6.8 44.3
03:20 1014 29.94 844 24.92 12.8 55 68 7 44.6
03:25 1014 29.94 844 24.92 12.7 54.9 68 7.1 44.7
03:30 1014 29.94 844 24.92 12.6 54.8 69 7.1 44.8
03:35 1015 29.97 844 24.92 12.6 54.7 69 7.1 44.9
03:40 1015 29.97 844 24.92 12.7 54.9 69 7.3 45.1
03:45 1015 29.97 844 24.92 12.7 54.9 70 7.4 45.2
03:50 1015 29.97 844 24.92 12.7 54.9 71 7.5 45.5
03:55 1015 29.97 844 24.92 12.5 54.6 71 7.5 45.4
04:00 1015 29.97 844 24.92 12.5 54.4 72 7.6 45.7
04:05 1015 29.97 844 24.92 12.2 54 73 7.5 45.6
04:10 1015 29.97 844 24.92 12.3 54.1 73 7.6 45.6
04:15 1015 29.97 844 24.92 12 53.6 74 7.6 45.7
04:20 1015 29.97 844 24.92 11.6 52.9 75 7.4 45.3
04:25 1015 29.97 844 24.92 11.6 52.9 74 7.2 44.9
04:30 1015 29.97 844 24.92 11.7 53.1 75 7.4 45.3
04:35 1015 29.97 844 24.92 11.5 52.7 75 7.2 45
04:40 1015 29.97 844 24.92 11.3 52.4 75 7.1 44.8
04:45 1015 29.97 844 24.92 11.4 52.5 75 7.1 44.8
04:50 1015 29.97 844 24.92 11.5 52.7 74 7.1 44.8
04:55 1015 29.97 844 24.92 11.5 52.7 73 6.9 44.5
05:00 1015 29.97 844 24.92 11.3 52.4 74 7 44.5
05:05 1015 29.97 844 24.92 11.2 52.1 75 6.9 44.5
05:10 1015 29.97 844 24.92 10.9 51.6 76 6.8 44.2
05:15 1015 29.97 844 24.92 10.6 51.1 76 6.7 44
05:20 1015 29.97 844 24.92 10.4 50.8 77 6.5 43.7
05:25 1015 29.97 844 24.92 10.4 50.6 77 6.5 43.7
05:30 1015 29.97 844 24.92 10.3 50.6 76 6.4 43.5
05:35 1015 29.97 844 24.92 10.4 50.6 76 6.4 43.6
05:40 1015 29.97 845 24.95 10.6 51 76 6.5 43.7
05:45 1015 29.97 845 24.95 11 51.8 74 6.7 44
05:50 1016 30 845 24.95 11 51.7 75 6.8 44.2
05:55 1016 30 845 24.95 11.1 52 75 6.8 44.3
06:00 1016 30 845 24.95 11.2 52.1 75 7 44.6
06:05 1016 30 845 24.95 11 51.7 76 6.9 44.5
06:10 1016 30 845 24.95 11.1 52 75 6.8 44.2
06:15 1016 30 845 24.95 11.1 52 75 6.8 44.3
06:20 1016 30 845 24.95 11 51.7 76 6.9 44.4
06:25 1016 30 845 24.95 11 51.8 76 6.9 44.4
06:30 1016 30 845 24.95 11 51.8 75 6.8 44.3
06:35 1016 30 845 24.95 11.1 52 74 6.7 44.1
06:40 1016 30 845 24.95 11.3 52.4 73 6.7 44.1
06:45 1016 30 845 24.95 11.4 52.6 73 6.8 44.2
06:50 1016 30 846 24.98 11.6 52.9 72 6.8 44.3
06:55 1017 30.03 846 24.98 11.6 53 74 7.1 44.8
07:00 1016 30 846 24.98 12 53.5 73 7.2 45
07:05 1016 30 846 24.98 12.5 54.6 71 7.4 45.3
07:10 1016 30 846 24.98 12.7 54.8 71 7.6 45.7
07:15 1017 30.03 846 24.98 12.7 54.8 71 7.5 45.6
07:20 1017 30.03 846 24.98 13.1 55.5 69 7.6 45.6
07:25 1017 30.03 846 24.98 13.2 55.7 70 7.9 46.3
07:30 1017 30.03 846 24.98 13.2 55.8 70 8 46.3
07:35 1017 30.03 846 24.98 13.4 56.1 70 8.1 46.6
07:40 1017 30.03 846 24.98 14.3 57.7 66 8.1 46.6
07:45 1017 30.03 846 24.98 14.5 58.1 67 8.6 47.4
07:50 1017 30.03 846 24.98 14.5 58.1 67 8.4 47.1
07:55 1017 30.03 846 24.98 15 59 65 8.5 47.3
08:00 1017 30.03 846 24.98 15.6 60.1 63 8.7 47.6
08:05 1017 30.03 846 24.98 15.8 60.5 62 8.7 47.6
08:10 1017 30.03 846 24.98 15.9 60.6 62 8.8 47.8
08:15 1017 30.03 846 24.98 15.7 60.3 63 8.9 47.9
08:20 1017 30.03 846 24.98 15.6 60 63 8.6 47.4
08:25 1017 30.03 846 24.98 15.9 60.6 62 8.6 47.5
08:30 1017 30.03 846 24.98 15.9 60.6 62 8.6 47.5
08:35 1017 30.03 846 24.98 16.2 61.1 62 9 48.3
08:40 1017 30.03 846 24.98 16.1 61 61 8.8 47.8
08:45 1017 30.03 846 24.98 16.1 61 60 8.5 47.3
08:50 1017 30.03 846 24.98 16.6 61.9 60 8.9 48.1
08:55 1017 30.03 846 24.98 16.5 61.7 61 9.1 48.3
09:00 1017 30.03 846 24.98 16.7 62.1 60 9.1 48.3
09:05 1017 30.03 846 24.98 17.6 63.7 55 8.6 47.6
09:10 1017 30.03 846 24.98 18 64.3 56 9.1 48.5
09:15 1017 30.03 846 24.98 18.2 64.8 54 8.8 47.8
09:20 1017 30.03 846 24.98 18.5 65.3 54 9.2 48.5
09:25 1017 30.03 846 24.98 18.6 65.5 54 9.2 48.6
09:30 1017 30.03 846 24.98 18.7 65.6 53 9.1 48.4
09:35 1017 30.03 846 24.98 19.1 66.5 52 9.2 48.6
09:40 1017 30.03 846 24.98 18.8 65.8 54 9.4 49
09:45 1017 30.03 846 24.98 18.6 65.5 51 8.5 47.2
09:50 1017 30.03 846 24.98 19.7 67.4 47 8.1 46.6
09:55 1017 30.03 846 24.98 20.2 68.4 44 7.7 45.8
10:00 1017 30.03 846 24.98 20.2 68.3 43 7.3 45.2
10:05 1017 30.03 846 24.98 20.1 68.2 39 5.9 42.6
10:10 1017 30.03 846 24.98 20 68 42 7 44.7
10:15 1017 30.03 846 24.98 20.1 68.2 41 6.7 44.1
10:20 1017 30.03 846 24.98 20.2 68.3 40 6.4 43.6
10:25 1017 30.03 846 24.98 20.4 68.7 40 6.5 43.8
10:30 1017 30.03 846 24.98 20.8 69.4 38 6 42.8
10:35 1017 30.03 846 24.98 21.3 70.3 38 6.6 43.8
10:40 1017 30.03 846 24.98 21.6 70.9 34 5.4 41.7
10:45 1016 30 846 24.98 21.7 71.1 29 3.1 37.6
10:50 1016 30 846 24.98 22.2 71.9 26 2.1 35.7
10:55 1016 30 846 24.98 22 71.5 21 -1.4 29.6
11:00 1016 30 845 24.95 22 71.6 21 -1.1 30.1
11:05 1016 30 845 24.95 22.2 71.9 18 -2.8 27
11:10 1016 30 845 24.95 22.4 72.4 19 -2.1 28.2
11:15 1016 30 845 24.95 22.4 72.3 19 -1.9 28.6
11:20 1016 30 845 24.95 22.4 72.3 19 -2.4 27.7
11:25 1016 30 845 24.95 22.5 72.4 19 -1.8 28.8
11:30 1016 30 845 24.95 22.9 73.2 19 -1.5 29.4
11:35 1016 30 845 24.95 22.8 73 16 -3.9 25
11:40 1016 30 845 24.95 22.5 72.6 17 -3.3 26
11:45 1016 30 845 24.95 22.8 73 17 -3 26.6
11:50 1016 30 845 24.95 22.7 72.8 17 -3.4 25.9
11:55 1016 30 845 24.95 22.8 73 16 -4.2 24.5
12:00 1016 30 845 24.95 22.6 72.7 16 -4.1 24.7
12:05 1016 30 845 24.95 22.8 73 16 -4.5 23.8
12:10 1016 30 845 24.95 22.7 72.8 16 -4.4 24.1
12:15 1016 30 845 24.95 22.7 72.8 17 -3.8 25.2
12:20 1016 30 845 24.95 23 73.4 15 -4.7 23.6
12:25 1016 30 845 24.95 23.2 73.7 16 -3.9 24.9
12:30 1016 30 845 24.95 23.2 73.7 15 -5.1 22.9
12:35 1016 30 845 24.95 23.2 73.7 15 -4.7 23.6
12:40 1016 30 845 24.95 23.4 74.2 15 -4.2 24.4
12:45 1016 30 845 24.95 23.2 73.8 15 -4.5 24
12:50 1016 30 845 24.95 23.7 74.7 13 -5.6 21.9
12:55 1016 30 845 24.95 24.1 75.3 14 -4.7 23.6
13:00 1016 30 845 24.95 23.8 74.9 13 -5.7 21.8
13:05 1016 30 845 24.95 23.9 74.9 15 -4.3 24.3
13:10 1016 30 845 24.95 24.3 75.7 15 -4.2 24.5
13:15 1016 30 845 24.95 24.6 76.2 14 -4.6 23.7
13:20 1016 30 845 24.95 24.6 76.2 14 -4.3 24.3
13:25 1016 30 845 24.95 24.6 76.2 13 -5.7 21.7
13:30 1016 30 845 24.95 24.5 76.1 14 -4.9 23.2
13:35 1016 30 845 24.95 24.7 76.4 14 -4.6 23.6
13:40 1016 30 845 24.95 24.7 76.5 13 -5.5 22.1
13:45 1016 30 845 24.95 24.7 76.5 12 -6 21.2
13:50 1016 30 845 24.95 24.7 76.4 15 -3.7 25.3
13:55 1016 30 845 24.95 23.2 73.8 20 -0.9 30.4
14:00 1016 30 845 24.95 22.5 72.4 20 -1.4 29.4
14:05 1016 30 845 24.95 22.3 72.2 19 -1.9 28.6
14:10 1016 30 845 24.95 22.2 72 20 -1.9 28.5
14:15 1016 30 845 24.95 21.8 71.3 22 -0.8 30.5
14:20 1016 30 846 24.98 21.6 70.9 24 0.5 32.8
14:25 1016 30 846 24.98 21.4 70.4 24 0.2 32.4
14:30 1017 30.03 846 24.98 21.2 70.1 23 -0.6 30.9
14:35 1017 30.03 846 24.98 21.2 70.2 24 -0.2 31.6
14:40 1017 30.03 846 24.98 21.2 70.2 24 -0.2 31.6
14:45 1017 30.03 846 24.98 21.1 69.9 22 -1.2 29.9
14:50 1017 30.03 846 24.98 20.8 69.4 23 -1.2 29.8
14:55 1017 30.03 846 24.98 20.6 69 25 0.2 32.3
15:00 1017 30.03 847 25.01 20.2 68.4 26 0.2 32.3
15:05 1018 30.06 847 25.01 20.5 68.8 23 -1 30.3
15:10 1018 30.06 847 25.01 21 69.7 24 -0.3 31.5
15:15 1018 30.06 847 25.01 21.6 70.9 21 -1.2 29.9
15:20 1018 30.06 847 25.01 22 71.5 23 -0.2 31.7
15:25 1018 30.06 847 25.01 21.7 71.1 21 -1.2 29.8
15:30 1018 30.06 847 25.01 21.3 70.4 23 -0.6 30.9
15:35 1018 30.06 847 25.01 21.5 70.7 22 -0.8 30.5
15:40 1018 30.06 847 25.01 21.6 70.8 22 -0.9 30.3
15:45 1018 30.06 847 25.01 22.1 71.7 21 -0.7 30.7
15:50 1018 30.06 847 25.01 22.3 72.1 20 -1.6 29.1
15:55 1018 30.06 847 25.01 22.6 72.7 22 -0.1 31.8
16:00 1018 30.06 847 25.01 22.1 71.8 23 0.4 32.7
16:05 1018 30.06 847 25.01 21.3 70.4 23 -0.2 31.6
16:10 1018 30.06 847 25.01 21.3 70.4 25 0.5 32.9
16:15 1018 30.06 847 25.01 21.4 70.5 23 -0.3 31.5
16:20 1018 30.06 847 25.01 21.6 70.8 24 0.3 32.5
16:25 1018 30.06 848 25.04 21.7 71 24 0.6 33.1
16:30 1018 30.06 848 25.04 21.4 70.6 25 0.6 33.2
16:35 1019 30.09 848 25.04 20.9 69.6 24 -0.4 31.3
16:40 1019 30.09 848 25.04 21 69.8 26 0.9 33.6
16:45 1019 30.09 848 25.04 21.2 70.1 25 0.6 33.1
16:50 1019 30.09 848 25.04 20.8 69.5 26 0.7 33.3
16:55 1019 30.09 848 25.04 20.5 68.9 26 0.3 32.5
17:00 1019 30.09 848 25.04 20.5 68.9 26 0.8 33.4
17:05 1019 30.09 848 25.04 20.3 68.6 26 0.6 33.1
17:10 1019 30.09 848 25.04 20 68 26 0 32.1
17:15 1019 30.09 849 25.07 19.5 67 27 0.3 32.5
17:20 1020 30.12 849 25.07 19 66.3 27 -0.4 31.2
17:25 1020 30.12 849 25.07 18.8 65.8 27 -0.6 30.9
17:30 1020 30.12 849 25.07 19 66.2 26 -0.8 30.5
17:35 1020 30.12 849 25.07 18.5 65.2 26 -1.2 29.8
17:40 1020 30.12 849 25.07 18.1 64.6 26 -1.7 28.9
17:45 1020 30.12 849 25.07 18 64.4 27 -1.1 30
17:50 1020 30.12 849 25.07 17.8 64 28 -1 30.1
17:55 1020 30.12 849 25.07 18 64.4 25 -2.1 28.2
18:00 1020 30.12 850 25.1 17.9 64.2 26 -1.6 29.1
18:05 1020 30.12 850 25.1 18.1 64.6 25 -2 28.5
18:10 1020 30.12 850 25.1 18.4 65.2 24 -2.1 28.2
18:15 1021 30.15 850 25.1 18.3 64.9 25 -2.2 28.1
18:20 1021 30.15 850 25.1 17.9 64.3 25 -2.4 27.7
18:25 1021 30.15 850 25.1 17.6 63.8 25 -2.5 27.6
18:30 1021 30.15 850 25.1 17.8 64 27 -1.6 29.2
18:35 1021 30.15 850 25.1 17.8 64 25 -2.6 27.3
18:40 1021 30.15 850 25.1 17.7 63.8 25 -2.4 27.7
18:45 1021 30.15 850 25.1 17.8 64 24 -2.9 26.8
18:50 1021 30.15 851 25.13 17.5 63.5 25 -2.9 26.8
18:55 1021 30.15 851 25.13 17.6 63.7 24 -3 26.5
19:00 1022 30.18 851 25.13 17.6 63.7 24 -3.2 26.3
19:05 1022 30.18 851 25.13 17.5 63.6 23 -3.9 25
19:10 1022 30.18 851 25.13 17.2 63 23 -3.9 25.1
19:15 1022 30.18 851 25.13 17.1 62.7 23 -4 24.7
19:20 1022 30.18 851 25.13 16.9 62.5 24 -3.8 25.2
19:25 1022 30.18 851 25.13 16.9 62.4 23 -4.3 24.3
19:30 1022 30.18 851 25.13 16.8 62.2 23 -4.1 24.5
19:35 1022 30.18 851 25.13 16.5 61.8 24 -3.7 25.3
19:40 1022 30.18 852 25.16 16.3 61.3 24 -4 24.9
19:45 1022 30.18 852 25.16 16 60.9 24 -4.2 24.4
19:50 1023 30.21 852 25.16 15.8 60.5 24 -4.7 23.5
19:55 1023 30.21 852 25.16 15.5 59.9 23 -5.4 22.3
20:00 1023 30.21 852 25.16 15.4 59.8 24 -4.9 23.2
20:05 1023 30.21 852 25.16 15.5 59.9 24 -4.8 23.3
20:10 1023 30.21 852 25.16 15.4 59.8 25 -4.6 23.8
20:15 1023 30.21 852 25.16 15.5 59.9 24 -4.9 23.2
20:20 1023 30.21 852 25.16 15.6 60.1 24 -4.9 23.2
20:25 1023 30.21 852 25.16 15.6 60 24 -4.6 23.7
20:30 1023 30.21 852 25.16 15.5 59.9 25 -4.6 23.8
20:35 1023 30.21 852 25.16 15.4 59.8 25 -4.4 24.1
20:40 1023 30.21 852 25.16 15.4 59.8 25 -4.4 24.1
20:45 1023 30.21 853 25.19 15.4 59.6 25 -4.2 24.4
20:50 1023 30.21 853 25.19 15.2 59.3 26 -4.4 24.2
20:55 1024 30.24 853 25.19 14.9 58.9 26 -4.1 24.6
21:00 1024 30.24 853 25.19 14.8 58.6 27 -4 24.8
21:05 1024 30.24 853 25.19 14.5 58 27 -4.4 24.1
21:10 1024 30.24 853 25.19 14.1 57.5 25 -5.3 22.4
21:15 1024 30.24 853 25.19 13.8 56.8 26 -5.3 22.4
21:20 1024 30.24 853 25.19 13.6 56.6 26 -5.4 22.3
21:25 1024 30.24 853 25.19 13.6 56.4 26 -5.6 21.9
21:30 1024 30.24 853 25.19 13.4 56.2 26 -5.7 21.8
21:35 1024 30.24 853 25.19 13.3 55.9 26 -5.7 21.7
21:40 1024 30.24 853 25.19 13.1 55.7 27 -5.5 22.1
21:45 1024 30.24 854 25.22 13 55.4 26 -5.8 21.6
21:50 1025 30.27 854 25.22 12.9 55.3 27 -5.6 21.9
21:55 1025 30.27 854 25.22 12.8 55.1 27 -5.7 21.7
22:00 1025 30.27 854 25.22 12.7 54.9 27 -5.9 21.4
22:05 1025 30.27 854 25.22 12.6 54.7 27 -5.7 21.8
22:10 1025 30.27 854 25.22 12.6 54.6 27 -5.9 21.4
22:15 1025 30.27 854 25.22 12.3 54.1 33 -3.7 25.4
22:20 1025 30.27 854 25.22 11.2 52.1 36 -3.4 25.9
22:25 1025 30.27 854 25.22 10.5 51 38 -3.2 26.2
22:30 1025 30.27 855 25.25 10.3 50.5 40 -2.6 27.3
22:35 1025 30.27 855 25.25 10.1 50.2 42 -2.1 28.1
22:40 1025 30.27 855 25.25 9.7 49.5 43 -2.2 28
22:45 1025 30.27 855 25.25 9.4 48.9 45 -1.8 28.8
22:50 1025 30.27 855 25.25 9.4 48.8 44 -2.3 27.8
22:55 1025 30.27 855 25.25 9.4 49 44 -2.2 28
23:00 1025 30.27 855 25.25 9.3 48.7 44 -2.2 28
23:05 1025 30.27 855 25.25 9.2 48.6 45 -2 28.3
23:10 1025 30.27 855 25.25 9.1 48.4 45 -2.1 28.2
23:15 1025 30.27 855 25.25 9.1 48.3 45 -2.3 27.9
23:20 1025 30.27 855 25.25 9 48.1 45 -2.2 28
23:25 1026 30.3 855 25.25 9 48.1 46 -2.1 28.2
23:30 1026 30.3 855 25.25 8.8 47.9 45 -2.3 27.8
23:35 1026 30.3 855 25.25 8.7 47.7 46 -2.2 28
23:40 1026 30.3 855 25.25 8.7 47.7 47 -2 28.4
23:45 1026 30.3 855 25.25 8.6 47.4 48 -1.9 28.6
23:50 1026 30.3 855 25.25 8.6 47.4 48 -1.9 28.6
23:55 1026 30.3 855 25.25 8.6 47.6 47 -1.9 28.5
24:00 1026 30.3 855 25.25 8.5 47.2 49 -1.7 29